Time;durP1;ratioP1;P1;durP2;ratioP2;P2;SDS_P1;SDS_P2;PMS_P1;PMS_P2;Temp;Humidity;BMP_temperature;BMP_pressure;BME280_temperature;BME280_humidity;BME280_pressure;Samples;Min_cycle;Max_cycle;Signal;HPM_P1;HPM_P2
2022/06/26 00:02:15;;;;;;;4.50;4.10;;;18.30;79.50;;;17.35;70.50;97663.31;5019515;28;20469;-71
2022/06/26 00:04:42;;;;;;;4.80;4.50;;;18.20;79.80;;;17.42;70.62;97675.63;5015478;28;20474;-75
2022/06/26 00:07:09;;;;;;;4.57;4.27;;;18.20;80.00;;;17.27;71.15;97679.13;5017038;28;21168;-75
2022/06/26 00:09:37;;;;;;;4.50;4.20;;;18.10;80.30;;;17.33;70.93;97681.88;5022972;28;20478;-74
2022/06/26 00:12:06;;;;;;;4.60;4.30;;;18.10;80.40;;;17.30;71.33;97682.41;5017614;27;20470;-74
2022/06/26 00:14:34;;;;;;;4.70;4.40;;;18.10;80.70;;;17.27;71.58;97687.31;5022356;28;20514;-75
2022/06/26 00:17:01;;;;;;;5.23;4.83;;;18.10;80.90;;;17.24;71.67;97690.59;5023170;28;20476;-72
2022/06/26 00:19:28;;;;;;;4.70;4.30;;;18.00;81.00;;;17.08;72.19;97699.81;5015386;27;22092;-71
2022/06/26 00:21:55;;;;;;;4.90;4.50;;;18.00;81.10;;;16.73;72.54;97649.38;5022021;28;20545;-74
2022/06/26 00:24:22;;;;;;;4.63;4.33;;;17.90;81.40;;;17.07;72.41;97695.44;5020947;27;20503;-74
2022/06/26 00:26:50;;;;;;;5.00;4.60;;;17.90;81.80;;;17.17;72.58;97691.94;5025194;28;20470;-75
2022/06/26 00:29:18;;;;;;;5.10;4.70;;;18.00;82.10;;;17.09;72.78;97698.72;5024189;27;20956;-74
2022/06/26 00:31:46;;;;;;;5.80;4.60;;;18.00;82.20;;;17.06;72.94;97694.59;5023457;27;20450;-75
2022/06/26 00:34:13;;;;;;;5.10;4.60;;;18.00;82.30;;;17.01;73.41;97685.56;5018577;28;20539;-75
2022/06/26 00:36:40;;;;;;;4.23;4.03;;;17.90;82.70;;;16.97;73.59;97691.53;5022013;27;20458;-75
2022/06/26 00:39:07;;;;;;;5.13;4.73;;;17.90;82.80;;;16.88;73.48;97682.19;5021606;28;20843;-73
2022/06/26 00:41:35;;;;;;;4.73;4.43;;;17.90;83.00;;;16.93;73.67;97704.06;5024576;27;20466;-73
2022/06/26 00:44:13;;;;;;;6.17;5.00;;;17.80;83.20;;;16.57;73.96;97676.56;5036176;27;20527;-74
2022/06/26 00:46:41;;;;;;;5.87;4.70;;;17.70;83.00;;;16.82;73.92;97716.81;5026168;28;20502;-73
2022/06/26 00:49:09;;;;;;;4.83;4.53;;;17.70;83.40;;;16.77;74.15;97721.44;5022475;28;20471;-74
2022/06/26 00:51:41;;;;;;;4.80;4.50;;;17.70;83.60;;;16.69;75.11;97715.38;5017129;27;20454;-74
2022/06/26 00:54:09;;;;;;;4.90;4.60;;;17.60;84.00;;;16.72;74.45;97719.50;5021698;28;20589;-75
2022/06/26 00:56:37;;;;;;;5.60;5.10;;;17.60;84.10;;;16.67;74.62;97720.28;5020076;27;21001;-75
2022/06/26 00:59:05;;;;;;;5.30;4.90;;;17.60;84.10;;;16.65;74.88;97727.91;5020265;27;20956;-74
2022/06/26 01:01:34;;;;;;;5.60;5.20;;;17.50;84.30;;;16.65;74.63;97722.44;5031264;28;21556;-75
2022/06/26 01:04:02;;;;;;;5.20;4.80;;;17.60;84.20;;;16.59;75.81;97728.13;5014152;28;20459;-74
2022/06/26 01:06:31;;;;;;;4.83;4.50;;;17.50;84.90;;;16.53;75.47;97719.06;5015711;28;20463;-76
2022/06/26 01:08:58;;;;;;;5.27;4.90;;;17.40;85.10;;;16.50;76.66;97730.50;5023972;28;20477;-75
2022/06/26 01:11:26;;;;;;;5.40;5.00;;;17.40;86.10;;;16.64;75.58;97731.72;5014618;27;21021;-75
2022/06/26 01:13:57;;;;;;;5.20;4.80;;;17.50;85.50;;;16.51;75.76;97721.25;5018728;28;20554;-76
2022/06/26 01:16:25;;;;;;;4.40;4.20;;;17.40;85.30;;;16.61;75.80;97721.34;5022336;27;20455;-75
2022/06/26 01:18:55;;;;;;;5.27;4.87;;;17.40;85.60;;;16.56;76.01;97718.56;5020034;27;20546;-76
2022/06/26 01:21:25;;;;;;;5.20;4.77;;;17.40;85.70;;;16.61;75.66;97718.59;5013811;28;20450;-76
2022/06/26 01:23:55;;;;;;;4.87;4.57;;;17.50;85.50;;;16.50;76.43;97723.16;5023080;28;20472;-76
2022/06/26 01:26:23;;;;;;;6.23;5.70;;;17.50;86.00;;;16.54;76.17;97729.75;5017422;28;20472;-76
2022/06/26 01:28:51;;;;;;;5.23;4.83;;;17.40;85.90;;;16.51;76.31;97718.53;5020269;27;20603;-75
2022/06/26 01:31:19;;;;;;;5.27;4.83;;;17.40;86.10;;;16.47;76.75;97722.88;5025017;28;20466;-75
2022/06/26 01:33:46;;;;;;;6.07;5.53;;;17.40;86.50;;;16.33;77.21;97726.03;5031312;28;20460;-75
2022/06/26 01:36:14;;;;;;;5.20;4.73;;;17.20;86.80;;;16.35;77.26;97729.31;5013240;28;20495;-73
2022/06/26 01:38:43;;;;;;;6.00;5.60;;;17.20;87.40;;;16.34;76.78;97729.56;5040270;27;20472;-75
2022/06/26 01:41:12;;;;;;;5.10;4.70;;;17.20;87.40;;;16.27;77.29;97735.22;5022162;28;20881;-75
2022/06/26 01:43:40;;;;;;;5.63;5.13;;;17.20;87.50;;;16.32;77.37;97729.00;5024712;28;21024;-74
2022/06/26 01:46:08;;;;;;;5.43;5.00;;;17.20;87.50;;;16.22;77.46;97736.00;5029566;28;20450;-77
2022/06/26 01:48:40;;;;;;;5.83;5.43;;;17.10;87.90;;;16.24;77.24;97738.47;5017770;28;20510;-74
2022/06/26 01:51:08;;;;;;;5.50;5.00;;;17.20;87.50;;;16.14;77.78;97729.13;5022561;28;20497;-75
2022/06/26 01:53:37;;;;;;;5.70;5.30;;;17.10;87.70;;;16.21;77.81;97734.34;5017895;27;20515;-75
2022/06/26 01:56:05;;;;;;;6.03;5.57;;;17.10;87.70;;;16.21;77.76;97744.44;5022690;27;21286;-76
2022/06/26 01:58:35;;;;;;;5.13;4.83;;;17.10;87.80;;;16.23;77.84;97736.84;5023697;28;20459;-74
2022/06/26 02:01:03;;;;;;;5.80;5.40;;;17.10;87.90;;;15.86;77.59;97678.44;5035128;27;20506;-74
2022/06/26 02:03:30;;;;;;;6.23;5.73;;;17.10;87.90;;;16.16;77.91;97725.34;5022329;28;21041;-76
2022/06/26 02:05:58;;;;;;;5.67;5.27;;;17.10;88.30;;;16.06;78.79;97720.59;5023898;28;20522;-75
2022/06/26 02:08:26;;;;;;;5.90;5.40;;;17.00;89.00;;;15.82;78.17;97686.28;5025068;28;20462;-76
2022/06/26 02:13:42;;;;;;;5.27;4.87;;;17.00;89.10;;;15.96;78.83;97740.41;5032186;28;20454;-74
2022/06/26 02:16:13;;;;;;;6.10;5.63;;;16.90;89.40;;;15.93;78.92;97739.03;5039674;28;20522;-72
2022/06/26 02:18:43;;;;;;;5.70;5.20;;;16.80;89.70;;;15.90;79.18;97742.25;5021134;28;20514;-75
2022/06/26 02:21:13;;;;;;;5.53;5.13;;;16.80;90.00;;;15.96;79.07;97743.13;5035858;28;20497;-74
2022/06/26 02:23:42;;;;;;;6.00;5.60;;;16.80;90.00;;;15.81;79.72;97736.41;5021907;28;20468;-75
2022/06/26 02:26:10;;;;;;;5.47;5.07;;;16.80;90.10;;;15.89;79.38;97743.31;5023840;28;20467;-75
2022/06/26 02:28:40;;;;;;;8.83;5.50;;;16.80;90.00;;;15.72;80.17;97738.78;5026619;27;20458;-74
2022/06/26 02:31:08;;;;;;;5.43;5.10;;;16.70;90.60;;;15.75;80.62;97747.50;5017266;27;20528;-75
2022/06/26 02:33:36;;;;;;;5.03;4.73;;;16.70;90.70;;;15.85;80.12;97751.19;5021166;28;20885;-73
2022/06/26 02:36:05;;;;;;;5.93;5.53;;;16.70;90.60;;;15.93;79.30;97752.66;5020803;28;20469;-74
2022/06/26 02:38:33;;;;;;;5.93;5.53;;;16.80;90.30;;;15.85;79.33;97743.00;5028165;28;20475;-73
2022/06/26 02:41:01;;;;;;;5.57;5.07;;;16.80;90.10;;;15.88;79.50;97751.75;5025156;28;20566;-74
2022/06/26 02:43:29;;;;;;;5.50;5.20;;;16.80;90.10;;;15.82;79.76;97743.50;5024049;28;20965;-72
2022/06/26 02:45:58;;;;;;;5.70;5.27;;;16.80;90.30;;;15.80;79.94;97748.38;5022548;28;20546;-72
2022/06/26 02:48:25;;;;;;;6.00;5.50;;;16.70;90.40;;;15.75;80.18;97751.06;5010097;28;20525;-73
2022/06/26 02:50:52;;;;;;;5.93;5.43;;;16.70;90.80;;;15.73;79.90;97747.78;5020663;28;21010;-73
2022/06/26 02:53:20;;;;;;;6.00;5.50;;;16.70;90.40;;;15.64;80.71;97749.28;5023811;28;20773;-71
2022/06/26 02:55:47;;;;;;;5.77;5.30;;;16.60;90.70;;;15.68;80.38;97753.16;5022174;28;20474;-74
2022/06/26 02:58:15;;;;;;;5.80;5.40;;;16.60;90.60;;;15.75;80.30;97752.94;5020834;28;20802;-72
2022/06/26 03:00:42;;;;;;;5.53;5.10;;;16.60;90.80;;;15.60;80.98;97761.78;5023152;28;20458;-75
2022/06/26 03:03:10;;;;;;;6.50;5.97;;;16.60;90.90;;;15.57;80.95;97755.78;5032190;28;20459;-73
2022/06/26 03:05:38;;;;;;;6.13;5.63;;;16.50;91.10;;;15.55;81.21;97771.53;5018047;28;20546;-74
2022/06/26 03:08:06;;;;;;;7.97;5.57;;;16.50;91.10;;;15.57;81.20;97763.09;5023934;28;20522;-74
2022/06/26 03:10:33;;;;;;;5.87;5.43;;;16.50;91.30;;;15.64;80.77;97763.75;5036810;27;20519;-74
2022/06/26 03:13:00;;;;;;;6.43;6.00;;;16.60;91.10;;;15.53;81.02;97762.78;5037468;28;20515;-73
2022/06/26 03:15:28;;;;;;;6.43;6.03;;;16.50;91.00;;;15.44;81.32;97761.59;5027545;28;20462;-74
2022/06/26 03:17:55;;;;;;;6.00;5.63;;;16.40;91.10;;;15.41;81.39;97770.28;5021065;28;20968;-73
2022/06/26 03:20:24;;;;;;;6.10;5.60;;;16.40;91.30;;;15.34;81.81;97770.47;5023475;28;20458;-73
2022/06/26 03:22:51;;;;;;;7.50;6.20;;;16.40;91.30;;;15.24;81.44;97763.00;5022259;28;20471;-73
2022/06/26 03:25:19;;;;;;;6.50;6.00;;;16.30;91.20;;;15.28;81.91;97776.91;5020332;28;20462;-72
2022/06/26 03:27:46;;;;;;;6.20;5.80;;;16.30;91.60;;;15.31;81.78;97773.66;5021985;28;20462;-69
2022/06/26 03:30:14;;;;;;;6.07;5.60;;;16.30;91.60;;;15.32;81.97;97769.06;5020345;28;20909;-73
2022/06/26 03:32:41;;;;;;;6.60;6.10;;;16.30;91.40;;;15.27;81.95;97776.09;5018395;28;20828;-74
2022/06/26 03:35:11;;;;;;;5.93;5.53;;;16.30;91.50;;;15.21;82.53;97777.09;5026413;28;20495;-74
2022/06/26 03:37:39;;;;;;;6.23;5.83;;;16.20;91.80;;;14.88;82.12;97732.56;5020837;28;20454;-72
2022/06/26 03:40:09;;;;;;;5.80;5.40;;;16.20;91.90;;;15.24;82.39;97782.03;5022085;28;20489;-74
2022/06/26 03:42:36;;;;;;;6.57;6.00;;;16.20;91.80;;;15.22;82.20;97775.19;5022387;28;20513;-74
2022/06/26 03:45:04;;;;;;;5.93;5.53;;;16.20;91.70;;;15.25;81.97;97775.53;5032929;28;20456;-77
2022/06/26 03:47:33;;;;;;;6.60;6.00;;;16.20;91.60;;;15.21;82.60;97777.09;5027391;27;21009;-72
2022/06/26 03:50:00;;;;;;;5.53;5.20;;;16.20;91.90;;;15.21;82.15;97779.81;5026801;28;20477;-73
2022/06/26 03:52:28;;;;;;;6.50;6.10;;;16.20;91.80;;;15.26;82.00;97774.44;5026070;28;20460;-70
2022/06/26 03:54:56;;;;;;;6.83;6.23;;;16.20;91.60;;;15.32;81.67;97778.06;5023169;27;20448;-73
2022/06/26 03:57:24;;;;;;;6.13;5.63;;;16.30;91.50;;;15.34;81.34;97780.50;5021231;28;20458;-74
2022/06/26 03:59:52;;;;;;;4.83;4.47;;;16.30;91.20;;;15.34;81.33;97781.34;5026051;27;20464;-73
2022/06/26 04:02:19;;;;;;;6.33;5.93;;;16.30;91.00;;;15.35;81.19;97782.16;5021591;28;20563;-73
2022/06/26 04:04:46;;;;;;;5.83;5.43;;;16.30;90.80;;;15.46;80.69;97783.09;5005208;28;20512;-70
2022/06/26 04:07:13;;;;;;;6.27;5.77;;;16.40;90.70;;;15.78;79.88;97775.06;5021469;28;20460;-73
2022/06/26 04:09:41;;;;;;;5.80;5.30;;;16.60;90.30;;;16.72;75.65;97776.78;5023157;27;21207;-74
2022/06/26 04:12:10;;;;;;;5.30;4.93;;;17.60;86.70;;;17.41;71.54;97771.47;5024827;27;20469;-72
2022/06/26 04:14:37;;;;;;;5.47;5.07;;;18.60;82.70;;;17.86;69.82;97776.56;5022611;28;21023;-74
2022/06/26 04:17:05;;;;;;;5.03;4.73;;;19.20;81.00;;;18.16;68.04;97769.53;5023531;27;20462;-74
2022/06/26 04:19:32;;;;;;;5.50;5.10;;;19.60;79.60;;;18.44;67.31;97786.53;5021408;27;20464;-76
2022/06/26 04:21:59;;;;;;;4.63;4.33;;;19.80;78.60;;;18.91;65.45;97784.56;5024673;28;20472;-72
2022/06/26 04:24:27;;;;;;;5.27;4.87;;;20.30;77.60;;;19.18;64.58;97797.16;5023495;28;20455;-75
2022/06/26 04:26:54;;;;;;;4.37;4.07;;;20.60;76.50;;;19.08;64.50;97792.53;5021660;28;20454;-71
2022/06/26 04:29:23;;;;;;;4.73;4.43;;;20.70;75.80;;;18.86;65.39;97793.59;5022055;27;20466;-75
2022/06/26 04:31:50;;;;;;;4.40;4.10;;;20.60;75.60;;;19.64;62.87;97791.53;5025634;27;20497;-71
2022/06/26 04:34:18;;;;;;;4.73;4.33;;;21.00;75.10;;;19.77;62.08;97784.59;5018482;27;20625;-73
2022/06/26 04:36:45;;;;;;;5.20;4.70;;;21.40;74.40;;;19.94;61.37;97791.69;5024725;27;20507;-75
2022/06/26 04:39:12;;;;;;;4.60;4.20;;;21.50;73.10;;;20.26;60.72;97784.09;5022371;28;20454;-73
2022/06/26 04:41:41;;;;;;;4.60;4.30;;;21.70;72.80;;;20.09;60.73;97790.78;5023485;27;21091;-75
2022/06/26 04:44:10;;;;;;;4.33;4.07;;;21.80;71.90;;;21.04;58.36;97787.06;5021067;28;20470;-75
2022/06/26 04:46:42;;;;;;;4.03;3.83;;;22.40;71.20;;;21.06;57.74;97784.84;5031338;27;20559;-75
2022/06/26 04:49:09;;;;;;;4.90;4.60;;;22.80;69.80;;;20.93;57.99;97791.84;5016899;28;21055;-75
2022/06/26 04:51:37;;;;;;;5.27;4.87;;;22.80;69.20;;;21.07;57.45;97787.28;5041267;27;20498;-74
2022/06/26 04:54:05;;;;;;;4.53;4.20;;;22.90;68.70;;;20.64;58.98;97784.38;5026272;28;20462;-77
2022/06/26 04:56:32;;;;;;;4.93;4.50;;;22.70;68.60;;;21.49;56.85;97787.66;5022125;28;20468;-75
2022/06/26 04:59:00;;;;;;;5.00;4.60;;;22.90;68.80;;;22.01;55.40;97781.53;5020742;27;20461;-74
2022/06/26 05:01:28;;;;;;;4.07;3.80;;;23.10;68.70;;;23.97;49.84;97773.69;5025647;27;20526;-75
2022/06/26 05:03:57;;;;;;;3.70;3.50;;;24.40;66.40;;;24.00;49.25;97784.09;5022864;28;20974;-76
2022/06/26 05:06:25;;;;;;;3.80;3.10;;;25.20;63.90;;;24.38;48.17;97790.47;5023804;28;20568;-75
2022/06/26 05:08:52;;;;;;;3.60;3.40;;;25.40;62.60;;;24.70;47.63;97788.59;5021164;27;20471;-75
2022/06/26 05:11:20;;;;;;;3.20;3.00;;;25.60;61.90;;;25.36;46.11;97801.03;5027765;27;20472;-71
2022/06/26 05:13:47;;;;;;;4.90;4.50;;;26.20;60.80;;;25.38;45.24;97791.25;5038690;27;21213;-76
2022/06/26 05:16:14;;;;;;;4.13;3.83;;;26.50;59.40;;;24.53;47.21;97775.47;5038615;27;20983;-76
2022/06/26 05:18:42;;;;;;;3.70;3.40;;;26.10;59.50;;;23.73;49.21;97791.31;5023396;27;20472;-79
2022/06/26 05:21:11;;;;;;;3.33;3.13;;;25.30;60.40;;;24.27;48.46;97771.38;5025382;27;20480;-78
2022/06/26 05:23:38;;;;;;;3.83;3.43;;;25.30;60.80;;;25.48;45.79;97792.13;5023970;28;20848;-78
2022/06/26 05:26:06;;;;;;;3.80;3.50;;;26.30;59.60;;;26.21;43.99;97800.00;5023935;28;20445;-78
2022/06/26 05:28:33;;;;;;;3.73;3.53;;;26.70;58.70;;;24.59;47.58;97799.09;5039807;27;20858;-77
2022/06/26 05:31:01;;;;;;;3.67;3.37;;;26.40;58.50;;;25.62;45.12;97798.38;5039282;27;21231;-77
2022/06/26 05:33:28;;;;;;;4.40;3.97;;;26.70;58.20;;;26.87;42.83;97806.53;5015953;27;20982;-77
2022/06/26 05:35:55;;;;;;;3.53;3.33;;;27.30;57.90;;;27.25;41.49;97810.50;5018723;27;21102;-78
2022/06/26 05:38:24;;;;;;;2.90;2.70;;;28.00;56.70;;;25.66;44.66;97804.91;5021950;28;20505;-76
2022/06/26 05:40:51;;;;;;;3.13;2.93;;;27.30;56.50;;;24.96;45.80;97793.50;5022759;28;20450;-80
2022/06/26 05:43:18;;;;;;;3.30;3.00;;;26.70;56.70;;;26.36;43.51;97820.84;5025084;28;20452;-73
2022/06/26 05:45:46;;;;;;;3.20;3.00;;;27.20;56.90;;;26.32;43.41;97813.53;5023389;28;20457;-74
2022/06/26 05:48:13;;;;;;;5.43;3.37;;;27.80;56.10;;;25.88;44.17;97800.41;5021015;28;20988;-75
2022/06/26 05:50:41;;;;;;;3.50;3.30;;;27.50;56.00;;;25.54;44.87;97807.44;5024813;27;21051;-74
2022/06/26 05:53:08;;;;;;;3.00;2.80;;;27.20;56.20;;;25.98;44.05;97804.81;5023845;28;20459;-76
2022/06/26 05:55:38;;;;;;;5.83;2.83;;;27.30;56.20;;;27.13;42.15;97803.69;5022931;28;20522;-75
2022/06/26 05:58:07;;;;;;;2.83;2.60;;;27.90;55.70;;;27.21;41.84;97799.25;5023453;28;20461;-75
2022/06/26 06:00:34;;;;;;;3.20;2.90;;;28.30;55.20;;;27.56;40.61;97787.25;5022761;28;20462;-75
2022/06/26 06:03:02;;;;;;;3.33;3.07;;;28.80;54.40;;;25.50;43.04;97670.97;5020289;27;20473;-80
2022/06/26 06:05:29;;;;;;;3.77;3.57;;;28.00;54.60;;;25.57;45.14;97809.59;5019132;28;20467;-75
2022/06/26 06:07:57;;;;;;;3.20;2.90;;;27.20;55.60;;;25.67;45.34;97812.06;5018604;28;20698;-74
2022/06/26 06:10:26;;;;;;;2.53;2.40;;;27.20;55.70;;;26.74;42.98;97769.50;5023345;28;20488;-75
2022/06/26 06:12:55;;;;;;;2.90;2.70;;;27.60;55.80;;;26.68;43.58;97799.31;5031655;28;21019;-76
2022/06/26 06:15:23;;;;;;;3.13;2.87;;;27.90;55.40;;;26.72;43.23;97800.31;5031083;28;20522;-78
2022/06/26 06:17:51;;;;;;;2.87;2.63;;;28.20;54.80;;;26.97;42.69;97797.84;5022919;27;21146;-78
2022/06/26 06:20:22;;;;;;;2.93;2.77;;;28.30;54.90;;;26.09;44.74;97805.31;5025089;27;20476;-77
2022/06/26 06:22:53;;;;;;;2.93;2.73;;;28.10;54.80;;;26.00;44.71;97802.53;5037790;27;20469;-74
2022/06/26 06:25:22;;;;;;;3.40;2.70;;;28.00;54.90;;;26.34;44.11;97802.94;5014450;28;20522;-74
2022/06/26 06:27:50;;;;;;;3.17;2.97;;;27.90;54.80;;;26.74;42.95;97797.19;5038921;27;20459;-74
2022/06/26 06:30:19;;;;;;;2.70;2.50;;;28.30;54.60;;;26.14;44.77;97813.47;5035143;27;20981;-76
2022/06/26 06:32:47;;;;;;;3.10;2.90;;;28.10;54.70;;;25.49;46.20;97821.44;5022770;28;20492;-82
2022/06/26 06:35:16;;;;;;;2.40;2.23;;;27.30;55.30;;;24.72;47.86;97814.78;5022473;28;20518;-78
2022/06/26 06:37:44;;;;;;;3.10;2.90;;;26.50;56.10;;;23.63;50.74;97810.81;5025282;27;20454;-80
2022/06/26 06:40:14;;;;;;;3.00;2.80;;;25.30;57.70;;;23.04;52.02;97781.84;5016912;27;20457;-74
2022/06/26 06:42:43;;;;;;;3.63;2.60;;;24.40;59.30;;;22.92;53.05;97812.63;5029556;27;20454;-76
2022/06/26 06:45:11;;;;;;;2.30;2.20;;;23.90;60.00;;;22.84;53.06;97801.50;5016446;28;20467;-76
2022/06/26 06:47:40;;;;;;;2.50;2.30;;;23.70;60.80;;;22.78;53.47;97823.63;5037283;27;20463;-77
2022/06/26 06:50:08;;;;;;;2.80;2.60;;;23.60;61.40;;;22.90;53.55;97823.13;5018110;28;20470;-74
2022/06/26 06:52:35;;;;;;;2.67;2.47;;;23.60;61.80;;;22.78;53.78;97828.28;5021652;28;20493;-77
2022/06/26 06:55:03;;;;;;;2.07;1.93;;;23.60;62.00;;;22.91;53.32;97819.25;5036299;27;20476;-75
2022/06/26 06:57:31;;;;;;;2.80;2.30;;;23.70;62.10;;;22.78;53.65;97825.53;5021076;28;20720;-75
2022/06/26 06:59:58;;;;;;;2.90;2.60;;;23.60;61.90;;;22.83;53.69;97830.16;5020683;28;20475;-75
2022/06/26 07:02:26;;;;;;;2.90;2.60;;;23.60;62.40;;;22.79;53.67;97827.16;5024081;28;20466;-76
2022/06/26 07:04:54;;;;;;;2.30;2.10;;;23.60;62.30;;;22.84;53.64;97829.84;5018373;28;20467;-75
2022/06/26 07:07:22;;;;;;;2.50;2.30;;;23.60;62.40;;;23.20;53.04;97831.97;5022572;28;20513;-80
2022/06/26 07:09:49;;;;;;;2.20;2.00;;;23.80;62.60;;;23.42;52.34;97826.94;5020667;28;20464;-78
2022/06/26 07:12:16;;;;;;;4.47;2.23;;;24.00;62.10;;;23.57;51.95;97834.06;5034885;28;21090;-76
2022/06/26 07:14:44;;;;;;;2.30;2.17;;;24.20;62.10;;;23.70;51.91;97827.75;5019812;28;20458;-75
2022/06/26 07:17:11;;;;;;;2.17;2.07;;;24.30;62.00;;;23.81;51.26;97835.81;5024012;28;20867;-77
2022/06/26 07:19:38;;;;;;;2.00;1.90;;;24.50;61.60;;;23.87;51.16;97835.41;5022039;27;20462;-81
2022/06/26 07:22:08;;;;;;;2.20;2.10;;;24.60;61.50;;;24.02;50.49;97817.75;5024566;27;20447;-75
2022/06/26 07:24:35;;;;;;;3.77;2.30;;;24.70;61.30;;;23.88;51.03;97811.38;5019273;28;20485;-78
2022/06/26 07:27:04;;;;;;;2.10;2.00;;;24.70;61.10;;;24.21;50.90;97833.34;5018700;28;20515;-75
2022/06/26 07:29:32;;;;;;;1.90;1.80;;;24.80;61.50;;;24.27;49.88;97825.78;5026733;28;20487;-74
2022/06/26 07:31:59;;;;;;;1.67;1.57;;;24.90;60.70;;;24.32;49.69;97823.69;5039489;27;20487;-78
2022/06/26 07:34:26;;;;;;;2.77;2.10;;;25.00;60.60;;;24.35;48.99;97813.19;5024605;27;20469;-74
2022/06/26 07:36:54;;;;;;;2.40;1.80;;;25.10;60.10;;;24.60;48.35;97818.09;5018668;28;20462;-76
2022/06/26 07:39:23;;;;;;;1.70;1.40;;;25.20;59.80;;;24.88;47.60;97809.72;5021493;27;20531;-77
2022/06/26 07:41:50;;;;;;;1.60;1.50;;;25.40;59.30;;;24.67;47.57;97819.63;5025853;27;20467;-77
2022/06/26 07:44:20;;;;;;;1.80;1.70;;;25.40;58.90;;;24.96;47.53;97821.94;5024211;27;21334;-75
2022/06/26 07:46:48;;;;;;;1.67;1.57;;;25.60;59.20;;;24.60;47.05;97800.72;5039500;28;20450;-75
2022/06/26 07:49:16;;;;;;;2.17;1.63;;;25.50;58.40;;;24.64;46.74;97825.75;5020219;28;20507;-75
2022/06/26 07:51:43;;;;;;;1.67;1.33;;;25.30;58.20;;;24.87;47.08;97824.66;5023199;27;20566;-75
2022/06/26 07:54:11;;;;;;;1.90;1.80;;;25.40;58.70;;;24.87;47.49;97823.81;5026052;28;20461;-74
2022/06/26 07:56:40;;;;;;;1.87;1.70;;;25.50;58.60;;;24.98;47.28;97824.41;5020823;28;20472;-79
2022/06/26 07:59:07;;;;;;;1.77;1.67;;;25.60;58.60;;;25.18;46.84;97829.38;5020640;27;20463;-74
2022/06/26 08:01:35;;;;;;;1.87;1.77;;;25.80;58.50;;;24.96;46.74;97829.44;5028052;27;20459;-75
2022/06/26 08:04:03;;;;;;;1.80;1.70;;;25.60;57.90;;;24.95;46.70;97833.31;5018986;27;20457;-76
2022/06/26 08:06:30;;;;;;;2.20;2.07;;;25.60;58.20;;;25.11;46.79;97834.56;5032319;28;20485;-74
2022/06/26 08:08:58;;;;;;;1.90;1.80;;;25.70;58.30;;;25.31;45.45;97824.88;5028112;27;20558;-77
2022/06/26 08:11:26;;;;;;;2.10;1.90;;;25.90;57.60;;;24.69;46.57;97811.81;5063811;27;20515;-78
2022/06/26 08:13:55;;;;;;;2.03;1.90;;;25.60;57.50;;;24.96;47.21;97816.41;5050009;27;20451;-77
2022/06/26 08:16:22;;;;;;;2.30;2.20;;;25.50;58.20;;;25.28;45.96;97814.47;5023347;27;20527;-74
2022/06/26 08:18:49;;;;;;;2.10;1.90;;;25.80;57.80;;;25.20;45.83;97820.78;5027743;27;20461;-75
2022/06/26 08:24:03;;;;;;;6.00;1.80;;;25.90;57.30;;;25.27;45.27;97815.59;5023375;28;20469;-75
2022/06/26 08:26:30;;;;;;;1.93;1.83;;;25.80;57.10;;;25.39;45.22;97808.69;5026247;28;20557;-75
2022/06/26 08:28:59;;;;;;;2.03;1.80;;;26.00;57.20;;;25.74;45.12;97809.66;5026225;28;20489;-74
2022/06/26 08:31:26;;;;;;;2.00;1.80;;;26.20;57.20;;;25.77;44.88;97815.69;5025668;28;20518;-75
2022/06/26 08:33:53;;;;;;;2.17;1.80;;;26.40;57.20;;;25.60;44.41;97806.19;5027313;28;20465;-74
2022/06/26 08:36:20;;;;;;;1.37;1.27;;;26.40;56.30;;;25.56;44.97;97796.91;5036398;28;20456;-75
2022/06/26 08:38:48;;;;;;;1.40;1.30;;;26.20;56.50;;;25.64;43.92;97807.16;5037079;28;20942;-75
2022/06/26 08:41:17;;;;;;;1.70;1.60;;;26.20;56.10;;;25.52;44.08;97793.13;5023807;28;20461;-76
2022/06/26 08:43:47;;;;;;;1.60;1.50;;;26.20;56.20;;;25.84;43.88;97802.16;5027311;28;20522;-76
2022/06/26 08:46:19;;;;;;;3.30;1.50;;;26.40;56.00;;;25.92;44.06;97801.38;5025021;28;20515;-75
2022/06/26 08:48:49;;;;;;;1.20;1.17;;;26.50;56.00;;;25.79;43.46;97805.94;5042556;27;20464;-74
2022/06/26 08:51:17;;;;;;;1.70;1.60;;;26.40;55.40;;;25.88;43.30;97792.91;5024640;28;20478;-75
2022/06/26 08:53:46;;;;;;;1.53;1.43;;;26.50;55.50;;;25.26;44.32;97791.88;5024791;28;20446;-75
2022/06/26 08:56:13;;;;;;;1.40;1.30;;;26.00;55.40;;;25.80;44.01;97792.91;5021471;28;20486;-75
2022/06/26 08:58:41;;;;;;;2.33;1.80;;;26.30;55.80;;;26.11;42.80;97792.78;5022321;28;20468;-77
2022/06/26 09:01:08;;;;;;;1.27;1.20;;;26.50;55.30;;;25.87;42.95;97793.25;5026586;28;20486;-75
2022/06/26 09:03:37;;;;;;;1.93;1.50;;;26.50;55.10;;;25.85;43.41;97795.50;5025663;28;20457;-76
2022/06/26 09:06:04;;;;;;;1.47;1.37;;;26.40;55.20;;;26.00;43.40;97800.56;5024080;28;20480;-75
2022/06/26 09:08:43;;;;;;;1.50;1.40;;;26.50;55.50;;;26.02;43.42;97795.56;5026529;28;20489;-76
2022/06/26 09:11:11;;;;;;;1.70;1.60;;;26.60;55.60;;;26.34;42.75;97787.13;5110045;27;20469;-75
2022/06/26 09:13:41;;;;;;;2.40;1.20;;;26.80;55.40;;;26.38;42.20;97790.88;5105380;27;20825;-75
2022/06/26 09:16:09;;;;;;;1.23;1.23;;;27.00;54.90;;;26.28;41.96;97792.00;5024864;28;20441;-76
2022/06/26 09:18:40;;;;;;;1.20;1.13;;;26.90;54.40;;;26.29;42.17;97785.34;5023941;28;20964;-76
2022/06/26 09:21:11;;;;;;;1.37;1.27;;;26.90;54.60;;;26.28;41.65;97780.13;5032213;28;20511;-75
2022/06/26 09:23:40;;;;;;;1.13;1.03;;;26.90;54.10;;;26.49;40.46;97785.84;5021914;28;20507;-79
2022/06/26 09:26:07;;;;;;;1.63;1.23;;;27.00;53.30;;;26.76;38.90;97786.59;5018170;28;20474;-79
2022/06/26 09:28:35;;;;;;;1.27;1.17;;;27.20;52.30;;;26.82;38.47;97787.25;5021889;28;20477;-77
2022/06/26 09:31:06;;;;;;;1.03;1.03;;;27.30;51.90;;;26.89;39.48;97786.78;5021833;28;20458;-74
2022/06/26 09:33:35;;;;;;;1.37;1.30;;;27.40;52.30;;;26.74;40.40;97788.88;5020824;28;20458;-74
2022/06/26 09:36:05;;;;;;;1.00;1.00;;;27.40;53.20;;;26.72;40.02;97780.94;5020487;28;20975;-75
2022/06/26 09:38:35;;;;;;;1.50;1.40;;;27.30;52.80;;;26.81;40.01;97778.13;5025234;27;20898;-76
2022/06/26 09:41:05;;;;;;;1.50;1.10;;;27.30;53.00;;;27.13;39.69;97770.41;5024878;28;21030;-75
2022/06/26 09:43:34;;;;;;;1.40;1.30;;;27.60;53.10;;;27.19;39.18;97775.78;5039243;28;21519;-75
2022/06/26 09:46:05;;;;;;;1.87;1.10;;;27.70;52.60;;;27.30;38.21;97779.81;5041136;28;20487;-75
2022/06/26 09:48:33;;;;;;;1.47;1.20;;;27.80;51.80;;;26.98;38.80;97784.81;5020344;28;20454;-73
2022/06/26 09:51:03;;;;;;;1.50;1.40;;;27.70;51.60;;;27.24;38.44;97781.16;5028655;27;20462;-75
2022/06/26 09:53:31;;;;;;;1.67;1.20;;;27.70;51.50;;;27.32;38.44;97751.75;5021662;27;20656;-76
2022/06/26 09:56:01;;;;;;;1.60;1.40;;;27.90;51.90;;;27.18;38.53;97746.41;5025855;28;20462;-75
2022/06/26 09:58:30;;;;;;;2.07;1.27;;;27.90;51.90;;;27.33;38.71;97778.34;5051774;27;20453;-76
2022/06/26 10:06:41;;;;;;;1.43;1.00;;;27.90;51.90;;;27.25;38.96;97777.22;5042976;27;20446;-76
2022/06/26 10:09:09;;;;;;;1.40;1.30;;;27.90;51.80;;;27.54;38.70;97781.22;5132748;27;20433;-76
2022/06/26 10:11:39;;;;;;;1.50;1.40;;;27.90;51.80;;;27.61;37.93;97769.59;5029617;28;20475;-76
2022/06/26 10:14:14;;;;;;;1.40;1.30;;;28.00;51.40;;;27.73;37.57;97768.88;5028383;28;20542;-76
2022/06/26 10:17:11;;;;;;;1.30;1.20;;;28.10;51.20;;;27.92;36.94;97780.34;5014501;28;20456;-77
2022/06/26 10:19:45;;;;;;;1.13;1.13;;;28.40;51.10;;;27.90;36.81;97768.75;5028671;28;20465;-75
2022/06/26 10:22:14;;;;;;;1.03;1.03;;;28.40;50.50;;;27.72;37.17;97770.81;5029610;28;20485;-75
2022/06/26 10:24:53;;;;;;;1.20;1.10;;;28.30;50.60;;;27.60;37.12;97771.53;5031750;28;20503;-74
2022/06/26 10:27:26;;;;;;;1.37;0.97;;;28.20;50.40;;;27.48;36.92;97761.13;5036492;27;20467;-75
2022/06/26 10:30:10;;;;;;;1.40;1.30;;;28.10;50.00;;;27.71;35.96;97767.25;5031058;28;20530;-74
2022/06/26 10:32:37;;;;;;;2.13;1.30;;;28.30;49.90;;;27.60;36.43;97765.16;5028994;28;20470;-75
2022/06/26 10:35:06;;;;;;;1.20;1.20;;;28.10;49.60;;;27.28;36.29;97759.91;5031239;28;20458;-75
2022/06/26 10:37:44;;;;;;;2.23;1.17;;;28.00;48.90;;;27.54;36.20;97761.81;5020815;28;20458;-74